createdAt,value
2022-11-22T00:00:28.478Z,98240.16
2022-11-22T00:01:37.082Z,98237.59
2022-11-22T00:02:44.766Z,98225.00
2022-11-22T00:03:48.602Z,98229.94
2022-11-22T00:04:52.930Z,98224.63
2022-11-22T00:05:54.436Z,98249.22
2022-11-22T00:06:55.884Z,98232.31
2022-11-22T00:07:57.587Z,98226.16
2022-11-22T00:08:59.104Z,98220.06
2022-11-22T00:10:00.534Z,98230.34
2022-11-22T00:11:02.028Z,98222.84
2022-11-22T00:12:03.538Z,98222.53
2022-11-22T00:13:04.981Z,98223.13
2022-11-22T00:15:23.911Z,98216.16
2022-11-22T00:16:25.367Z,98217.50
2022-11-22T00:17:26.873Z,98222.22
2022-11-22T00:18:28.771Z,98218.41
2022-11-22T00:19:30.477Z,98205.41
2022-11-22T00:20:32.247Z,98199.00
2022-11-22T00:21:33.935Z,98200.06
2022-11-22T00:22:44.074Z,98197.59
2022-11-22T00:23:47.934Z,98199.63
2022-11-22T00:24:51.532Z,98190.78
2022-11-22T00:25:54.001Z,98194.69
2022-11-22T00:26:55.451Z,98191.59
2022-11-22T00:27:56.990Z,98197.38
2022-11-22T00:28:58.435Z,98192.94
2022-11-22T00:30:00.033Z,98198.00
2022-11-22T00:31:01.534Z,98196.47
2022-11-22T00:32:03.046Z,98193.69
2022-11-22T00:33:04.496Z,98202.03
2022-11-22T00:34:06.006Z,98205.63
2022-11-22T00:35:13.655Z,98195.09
2022-11-22T00:36:20.865Z,98200.66
2022-11-22T00:37:25.422Z,98198.69
2022-11-22T00:38:29.270Z,98195.09
2022-11-22T00:39:36.876Z,98205.94
2022-11-22T00:40:38.507Z,98200.88
2022-11-22T00:41:39.963Z,98213.44
2022-11-22T00:42:41.480Z,98209.81
2022-11-22T00:43:43.142Z,98218.78
2022-11-22T00:45:09.512Z,98215.19
2022-11-22T00:46:18.439Z,98204.56
2022-11-22T00:47:22.744Z,98200.97
2022-11-22T00:48:24.406Z,98202.28
2022-11-22T00:49:25.937Z,98201.16
2022-11-22T00:50:27.394Z,98207.03
2022-11-22T00:51:28.872Z,98213.22
2022-11-22T00:52:30.349Z,98208.47
2022-11-22T00:54:55.012Z,98206.66
2022-11-22T00:56:02.633Z,98209.94
2022-11-22T00:57:04.105Z,98215.09
2022-11-22T00:58:05.681Z,98217.56
2022-11-22T00:59:12.288Z,98222.63
2022-11-22T01:00:16.778Z,98208.72
2022-11-22T01:01:23.409Z,98218.72
2022-11-22T01:02:25.067Z,98212.09
2022-11-22T01:03:26.606Z,98206.72
2022-11-22T01:04:30.704Z,98211.69
2022-11-22T01:05:34.966Z,98208.91
2022-11-22T01:06:38.807Z,98213.84
2022-11-22T01:07:44.423Z,98223.53
2022-11-22T01:08:45.970Z,98223.44
2022-11-22T01:09:48.945Z,98230.97
2022-11-22T01:10:55.057Z,98235.16
2022-11-22T01:11:57.974Z,98244.25
2022-11-22T01:12:59.530Z,98251.75
2022-11-22T01:14:00.988Z,98249.56
2022-11-22T01:15:05.613Z,98250.06
2022-11-22T01:16:07.587Z,98255.84
2022-11-22T01:17:09.096Z,98252.94
2022-11-22T01:18:10.969Z,98244.47
2022-11-22T01:19:13.919Z,98251.59
2022-11-22T01:20:22.958Z,98247.59
2022-11-22T01:21:24.382Z,98253.38
2022-11-22T01:22:28.745Z,98259.34
2022-11-22T01:23:30.782Z,98254.00
2022-11-22T01:24:32.257Z,98256.25
2022-11-22T01:25:33.810Z,98256.50
2022-11-22T01:26:36.003Z,98247.03
2022-11-22T01:27:38.141Z,98252.25
2022-11-22T01:28:43.182Z,98249.22
2022-11-22T01:29:44.747Z,98251.94
2022-11-22T01:30:52.640Z,98251.31
2022-11-22T01:31:54.114Z,98250.69
2022-11-22T01:32:55.570Z,98258.97
2022-11-22T01:33:58.881Z,98261.63
2022-11-22T01:35:00.420Z,98261.56
2022-11-22T01:36:01.891Z,98266.50
2022-11-22T01:37:10.554Z,98268.66
2022-11-22T01:38:12.059Z,98268.66
2022-11-22T01:39:13.543Z,98278.16
2022-11-22T01:40:18.065Z,98263.09
2022-11-22T01:41:20.971Z,98268.88
2022-11-22T01:42:22.417Z,98274.34
2022-11-22T01:43:24.765Z,98274.03
2022-11-22T01:44:30.784Z,98261.50
2022-11-22T01:45:39.529Z,98265.28
2022-11-22T01:46:40.979Z,98252.94
2022-11-22T01:47:42.442Z,98260.47
2022-11-22T01:48:53.766Z,98255.09
2022-11-22T01:50:09.259Z,98264.19
2022-11-22T01:51:25.660Z,98265.63
2022-11-22T01:52:27.996Z,98262.84
2022-11-22T01:53:36.022Z,98264.19
2022-11-22T01:54:38.563Z,98257.50
2022-11-22T01:55:42.391Z,98269.44
2022-11-22T01:56:44.635Z,98265.94
2022-11-22T01:57:48.683Z,98265.31
2022-11-22T01:58:51.765Z,98262.44
2022-11-22T01:59:55.370Z,98273.56
2022-11-22T02:00:59.795Z,98273.75
2022-11-22T02:02:09.366Z,98272.63
2022-11-22T02:03:11.290Z,98268.31
2022-11-22T02:04:13.505Z,98272.22
2022-11-22T02:06:38.746Z,98260.78
2022-11-22T02:07:50.306Z,98262.50
2022-11-22T02:08:54.935Z,98266.22
2022-11-22T02:09:56.365Z,98265.09
2022-11-22T02:11:03.868Z,98268.31
2022-11-22T02:12:05.457Z,98263.16
2022-11-22T02:13:06.955Z,98276.97
2022-11-22T02:14:19.054Z,98264.47
2022-11-22T02:15:21.050Z,98275.41
2022-11-22T02:16:29.766Z,98271.50
2022-11-22T02:17:32.008Z,98283.69
2022-11-22T02:18:36.624Z,98282.53
2022-11-22T02:19:43.271Z,98276.84
2022-11-22T02:20:50.892Z,98291.28
2022-11-22T02:21:54.732Z,98290.16
2022-11-22T02:23:00.137Z,98287.47
2022-11-22T02:24:07.590Z,98285.53
2022-11-22T02:25:12.981Z,98285.84
2022-11-22T02:26:42.386Z,98286.84
2022-11-22T02:27:44.067Z,98286.34
2022-11-22T02:28:45.524Z,98280.16
2022-11-22T02:29:50.006Z,98271.19
2022-11-22T02:30:51.520Z,98275.72
2022-11-22T02:31:55.322Z,98273.44
2022-11-22T02:32:57.117Z,98270.28
2022-11-22T02:34:01.564Z,98268.50
2022-11-22T02:35:12.798Z,98274.50
2022-11-22T02:36:15.042Z,98272.81
2022-11-22T02:37:21.299Z,98277.78
2022-11-22T02:38:24.842Z,98262.81
2022-11-22T02:39:27.672Z,98277.78
2022-11-22T02:40:29.590Z,98276.16
2022-11-22T02:41:38.371Z,98272.22
2022-11-22T02:42:39.839Z,98273.25
2022-11-22T02:43:44.229Z,98280.47
2022-11-22T02:44:47.979Z,98281.72
2022-11-22T02:45:53.316Z,98285.00
2022-11-22T02:46:55.041Z,98286.03
2022-11-22T02:48:09.410Z,98294.88
2022-11-22T02:49:11.011Z,98287.66
2022-11-22T02:50:12.493Z,98291.78
2022-11-22T02:51:17.207Z,98288.19
2022-11-22T02:52:21.347Z,98294.28
2022-11-22T02:53:25.664Z,98295.94
2022-11-22T02:54:27.171Z,98301.78
2022-11-22T02:55:28.849Z,98297.91
2022-11-22T02:56:38.196Z,98304.81
2022-11-22T02:57:42.375Z,98296.97
2022-11-22T02:58:44.174Z,98304.81
2022-11-22T02:59:48.026Z,98308.72
2022-11-22T03:00:49.609Z,98308.28
2022-11-22T03:01:51.160Z,98308.28
2022-11-22T03:02:52.625Z,98314.06
2022-11-22T03:03:54.069Z,98301.50
2022-11-22T03:04:57.853Z,98309.31
2022-11-22T03:06:02.655Z,98307.06
2022-11-22T03:07:05.090Z,98308.72
2022-11-22T03:08:06.610Z,98305.44
2022-11-22T03:09:08.173Z,98301.78
2022-11-22T03:10:12.371Z,98304.28
2022-11-22T03:11:21.399Z,98314.28
2022-11-22T03:12:25.740Z,98316.56
2022-11-22T03:13:33.087Z,98309.94
2022-11-22T03:14:34.562Z,98314.59
2022-11-22T03:15:36.220Z,98313.16
2022-11-22T03:16:39.026Z,98320.06
2022-11-22T03:17:49.218Z,98329.22
2022-11-22T03:18:50.671Z,98329.34
2022-11-22T03:19:52.181Z,98319.22
2022-11-22T03:20:53.655Z,98332.34
2022-11-22T03:22:04.307Z,98335.13
2022-11-22T03:23:13.357Z,98332.34
2022-11-22T03:24:14.898Z,98316.13
2022-11-22T03:25:20.107Z,98339.44
2022-11-22T03:26:22.749Z,98336.88
2022-11-22T03:27:25.085Z,98338.84
2022-11-22T03:28:29.823Z,98339.66
2022-11-22T03:29:32.524Z,98331.81
2022-11-22T03:30:40.825Z,98325.63
2022-11-22T03:31:43.036Z,98332.41
2022-11-22T03:32:50.570Z,98336.44
2022-11-22T03:33:54.666Z,98337.78
2022-11-22T03:34:56.141Z,98343.34
2022-11-22T03:35:57.644Z,98345.50
2022-11-22T03:36:59.253Z,98333.78
2022-11-22T03:38:01.022Z,98340.38
2022-11-22T03:39:05.381Z,98327.47
2022-11-22T03:40:09.542Z,98337.78
2022-11-22T03:41:10.992Z,98336.44
2022-11-22T03:42:16.699Z,98335.31
2022-11-22T03:43:20.073Z,98332.84
2022-11-22T03:44:26.787Z,98327.47
2022-11-22T03:45:30.933Z,98333.16
2022-11-22T03:46:57.430Z,98329.22
2022-11-22T03:47:58.895Z,98332.44
2022-11-22T03:49:00.377Z,98334.69
2022-11-22T03:50:01.931Z,98324.59
2022-11-22T03:51:04.883Z,98339.84
2022-11-22T03:52:16.574Z,98332.84
2022-11-22T03:54:41.161Z,98334.28
2022-11-22T03:55:45.410Z,98331.31
2022-11-22T03:56:54.086Z,98336.56
2022-11-22T03:57:58.417Z,98333.28
2022-11-22T03:59:02.253Z,98335.44
2022-11-22T04:00:04.743Z,98333.78
2022-11-22T04:01:17.049Z,98323.34
2022-11-22T04:03:48.348Z,98332.13
2022-11-22T04:04:50.039Z,98322.13
2022-11-22T04:05:54.496Z,98331.81
2022-11-22T04:06:56.073Z,98329.84
2022-11-22T04:07:58.171Z,98322.84
2022-11-22T04:09:03.178Z,98331.28
2022-11-22T04:10:05.325Z,98344.38
2022-11-22T04:11:09.110Z,98345.19
2022-11-22T04:12:10.611Z,98347.78
2022-11-22T04:13:14.407Z,98348.09
2022-11-22T04:14:43.942Z,98352.22
2022-11-22T04:15:45.426Z,98357.19
2022-11-22T04:16:47.036Z,98349.53
2022-11-22T04:17:51.259Z,98360.06
2022-11-22T04:18:52.760Z,98357.59
2022-11-22T04:20:27.823Z,98365.63
2022-11-22T04:21:35.268Z,98367.19
2022-11-22T04:22:36.700Z,98370.81
2022-11-22T04:23:51.359Z,98368.53
2022-11-22T04:26:28.854Z,98363.91
2022-11-22T04:27:39.647Z,98358.00
2022-11-22T04:29:08.872Z,98366.88
2022-11-22T04:30:13.736Z,98368.84
2022-11-22T04:31:35.845Z,98363.16
2022-11-22T04:32:55.844Z,98373.16
2022-11-22T04:33:57.363Z,98370.38
2022-11-22T04:34:58.814Z,98365.31
2022-11-22T04:36:00.347Z,98364.81
2022-11-22T04:37:01.989Z,98363.97
2022-11-22T04:38:03.659Z,98364.81
2022-11-22T04:39:11.182Z,98372.03
2022-11-22T04:40:15.693Z,98371.72
2022-11-22T04:41:20.046Z,98375.44
2022-11-22T04:42:39.907Z,98387.69
2022-11-22T04:44:02.959Z,98394.59
2022-11-22T04:45:04.690Z,98394.28
2022-11-22T04:46:06.191Z,98395.75
2022-11-22T04:47:11.095Z,98392.25
2022-11-22T04:48:16.653Z,98375.53
2022-11-22T04:49:20.739Z,98380.88
2022-11-22T04:50:43.980Z,98384.78
2022-11-22T04:52:03.895Z,98379.47
2022-11-22T04:53:06.136Z,98367.19
2022-11-22T04:54:13.723Z,98373.78
2022-11-22T04:55:15.213Z,98365.94
2022-11-22T04:56:19.583Z,98362.84
2022-11-22T04:57:23.431Z,98365.03
2022-11-22T04:58:25.078Z,98359.47
2022-11-22T04:59:26.570Z,98356.38
2022-11-22T05:00:28.533Z,98359.66
2022-11-22T05:01:30.176Z,98372.53
2022-11-22T05:02:32.079Z,98375.94
2022-11-22T05:03:33.550Z,98375.31
2022-11-22T05:04:37.635Z,98378.41
2022-11-22T05:06:57.937Z,98379.47
2022-11-22T05:08:00.130Z,98382.25
2022-11-22T05:09:01.587Z,98394.72
2022-11-22T05:10:03.277Z,98391.44
2022-11-22T05:11:07.510Z,98378.84
2022-11-22T05:12:11.298Z,98394.72
2022-11-22T05:13:12.744Z,98385.22
2022-11-22T05:14:15.114Z,98394.09
2022-11-22T05:15:19.368Z,98389.34
2022-11-22T05:16:23.426Z,98391.63
2022-11-22T05:17:24.875Z,98395.53
2022-11-22T05:18:26.464Z,98395.13
2022-11-22T05:19:28.071Z,98405.44
2022-11-22T05:20:32.522Z,98396.50
2022-11-22T05:21:35.668Z,98400.09
2022-11-22T05:22:58.866Z,98404.59
2022-11-22T05:24:02.382Z,98412.75
2022-11-22T05:25:04.541Z,98400.09
2022-11-22T05:26:06.258Z,98400.59
2022-11-22T05:27:07.718Z,98405.84
2022-11-22T05:28:09.151Z,98410.50
2022-11-22T05:29:13.001Z,98411.63
2022-11-22T05:30:16.003Z,98409.03
2022-11-22T05:31:27.446Z,98402.97
2022-11-22T05:32:34.515Z,98411.63
2022-11-22T05:33:39.227Z,98409.34
2022-11-22T05:34:43.899Z,98410.19
2022-11-22T05:35:45.539Z,98413.28
2022-11-22T05:36:47.000Z,98418.44
2022-11-22T05:37:48.522Z,98420.69
2022-11-22T05:38:49.990Z,98426.88
2022-11-22T05:39:53.617Z,98426.03
2022-11-22T05:40:55.105Z,98421.41
2022-11-22T05:41:56.592Z,98420.91
2022-11-22T05:42:58.710Z,98429.41
2022-11-22T05:44:00.215Z,98426.63
2022-11-22T05:45:02.311Z,98427.47
2022-11-22T05:46:09.507Z,98429.94
2022-11-22T05:48:26.522Z,98419.84
2022-11-22T05:49:28.157Z,98418.19
2022-11-22T05:50:29.858Z,98424.00
2022-11-22T05:51:34.605Z,98418.63
2022-11-22T05:52:41.838Z,98422.53
2022-11-22T05:54:59.098Z,98420.28
2022-11-22T05:56:07.098Z,98426.03
2022-11-22T05:57:09.141Z,98416.34
2022-11-22T05:58:11.142Z,98425.31
2022-11-22T05:59:13.115Z,98425.31
2022-11-22T06:00:27.321Z,98426.88
2022-11-22T06:01:32.259Z,98426.25
2022-11-22T06:02:33.751Z,98428.97
2022-11-22T06:03:35.454Z,98428.66
2022-11-22T06:04:42.760Z,98424.41
2022-11-22T06:05:50.153Z,98427.72
2022-11-22T06:06:53.149Z,98432.97
2022-11-22T06:09:14.304Z,98436.69
2022-11-22T06:10:15.959Z,98432.25
2022-11-22T06:11:21.247Z,98444.41
2022-11-22T06:12:26.177Z,98448.56
2022-11-22T06:13:33.089Z,98446.06
2022-11-22T06:14:39.970Z,98443.81
2022-11-22T06:15:47.248Z,98449.47
2022-11-22T06:16:48.747Z,98450.91
2022-11-22T06:17:52.136Z,98455.56
2022-11-22T06:18:53.925Z,98452.69
2022-11-22T06:19:55.377Z,98451.56
2022-11-22T06:21:03.599Z,98454.03
2022-11-22T06:22:06.142Z,98455.38
2022-11-22T06:23:10.605Z,98462.06
2022-11-22T06:24:12.284Z,98462.69
2022-11-22T06:25:19.674Z,98459.41
2022-11-22T06:26:24.364Z,98464.66
2022-11-22T06:27:25.877Z,98462.19
2022-11-22T06:28:27.792Z,98466.09
2022-11-22T06:29:29.563Z,98468.25
2022-11-22T06:30:34.204Z,98464.41
2022-11-22T06:31:35.702Z,98480.28
2022-11-22T06:32:37.225Z,98473.06
2022-11-22T06:33:38.915Z,98476.38
2022-11-22T06:34:40.427Z,98484.44
2022-11-22T06:35:41.894Z,98485.75
2022-11-22T06:36:43.418Z,98482.13
2022-11-22T06:37:52.200Z,98481.50
2022-11-22T06:39:03.707Z,98485.94
2022-11-22T06:40:08.439Z,98490.59
2022-11-22T06:41:13.674Z,98490.06
2022-11-22T06:42:15.306Z,98495.34
2022-11-22T06:43:16.848Z,98498.94
2022-11-22T06:44:21.185Z,98502.56
2022-11-22T06:45:23.189Z,98499.47
2022-11-22T06:46:33.701Z,98498.88
2022-11-22T06:47:37.306Z,98505.88
2022-11-22T06:48:44.741Z,98505.97
2022-11-22T06:49:48.985Z,98502.75
2022-11-22T06:50:53.349Z,98502.22
2022-11-22T06:51:54.828Z,98502.13
2022-11-22T06:52:56.313Z,98504.41
2022-11-22T06:53:58.065Z,98495.50
2022-11-22T06:54:59.648Z,98504.91
2022-11-22T06:56:19.825Z,98512.66
2022-11-22T06:57:24.518Z,98507.91
2022-11-22T06:58:26.151Z,98512.13
2022-11-22T06:59:30.898Z,98511.63
2022-11-22T07:00:32.710Z,98508.22
2022-11-22T07:01:34.386Z,98505.66
2022-11-22T07:02:37.578Z,98524.81
2022-11-22T07:03:39.425Z,98531.78
2022-11-22T07:05:02.176Z,98521.47
2022-11-22T07:06:11.384Z,98524.81
2022-11-22T07:07:15.326Z,98512.78
2022-11-22T07:09:32.529Z,98517.44
2022-11-22T07:10:38.598Z,98528.56
2022-11-22T07:11:40.167Z,98532.88
2022-11-22T07:12:41.647Z,98527.41
2022-11-22T07:13:45.387Z,98526.56
2022-11-22T07:14:46.857Z,98526.28
2022-11-22T07:16:09.534Z,98529.25
2022-11-22T07:17:11.018Z,98523.84
2022-11-22T07:18:12.464Z,98518.56
2022-11-22T07:19:16.469Z,98526.31
2022-11-22T07:20:17.983Z,98522.91
2022-11-22T07:21:21.996Z,98527.88
2022-11-22T07:22:23.467Z,98521.19
2022-11-22T07:23:24.988Z,98531.69
2022-11-22T07:24:29.156Z,98524.38
2022-11-22T07:25:30.619Z,98523.03
2022-11-22T07:26:32.206Z,98522.13
2022-11-22T07:27:33.753Z,98527.59
2022-11-22T07:28:35.277Z,98530.69
2022-11-22T07:29:36.736Z,98531.00
2022-11-22T07:30:42.641Z,98533.56
2022-11-22T07:31:48.623Z,98532.97
2022-11-22T07:32:50.140Z,98528.13
2022-11-22T07:33:51.778Z,98537.31
2022-11-22T07:34:53.251Z,98534.81
2022-11-22T07:35:54.782Z,98537.09
2022-11-22T07:37:00.495Z,98539.88
2022-11-22T07:38:04.071Z,98542.84
2022-11-22T07:39:05.601Z,98546.75
2022-11-22T07:40:07.558Z,98547.59
2022-11-22T07:41:14.899Z,98542.63
2022-11-22T07:42:22.314Z,98551.00
2022-11-22T07:43:32.848Z,98559.56
2022-11-22T07:44:34.344Z,98545.81
2022-11-22T07:45:38.126Z,98556.13
2022-11-22T07:46:47.004Z,98553.94
2022-11-22T07:48:03.637Z,98567.47
2022-11-22T07:49:05.152Z,98570.25
2022-11-22T07:50:07.429Z,98561.69
2022-11-22T07:51:11.473Z,98570.88
2022-11-22T07:52:18.935Z,98563.03
2022-11-22T07:53:46.061Z,98569.66
2022-11-22T07:54:48.298Z,98573.78
2022-11-22T07:55:50.270Z,98566.25
2022-11-22T07:56:59.165Z,98572.34
2022-11-22T07:58:00.735Z,98566.97
2022-11-22T07:59:02.623Z,98582.28
2022-11-22T08:00:10.722Z,98578.38
2022-11-22T08:01:13.139Z,98585.34
2022-11-22T08:02:14.822Z,98576.47
2022-11-22T08:03:17.977Z,98578.53
2022-11-22T08:04:20.364Z,98580.81
2022-11-22T08:05:21.940Z,98585.53
2022-11-22T08:06:23.392Z,98586.38
2022-11-22T08:07:27.243Z,98591.41
2022-11-22T08:08:31.627Z,98595.94
2022-11-22T08:09:33.149Z,98592.72
2022-11-22T08:10:35.255Z,98588.81
2022-11-22T08:11:39.894Z,98589.63
2022-11-22T08:12:43.793Z,98591.66
2022-11-22T08:13:46.235Z,98593.84
2022-11-22T08:14:50.490Z,98594.97
2022-11-22T08:15:56.729Z,98596.09
2022-11-22T08:17:02.456Z,98598.88
2022-11-22T08:18:04.005Z,98601.59
2022-11-22T08:19:07.819Z,98600.75
2022-11-22T08:20:13.162Z,98599.78
2022-11-22T08:21:22.163Z,98608.28
2022-11-22T08:22:31.107Z,98605.19
2022-11-22T08:23:32.634Z,98601.84
2022-11-22T08:24:34.235Z,98605.66
2022-11-22T08:25:35.699Z,98608.13
2022-11-22T08:26:37.299Z,98608.97
2022-11-22T08:27:39.833Z,98605.88
2022-11-22T08:28:49.174Z,98608.97
2022-11-22T08:29:58.008Z,98613.28
2022-11-22T08:31:04.299Z,98619.41
2022-11-22T08:32:05.783Z,98606.84
2022-11-22T08:33:07.332Z,98611.22
2022-11-22T08:34:08.852Z,98617.31
2022-11-22T08:36:29.673Z,98616.19
2022-11-22T08:37:31.209Z,98616.78
2022-11-22T08:38:36.056Z,98616.28
2022-11-22T08:39:42.991Z,98614.84
2022-11-22T08:40:48.256Z,98617.00
2022-11-22T08:41:49.795Z,98611.69
2022-11-22T08:42:53.398Z,98613.56
2022-11-22T08:43:54.980Z,98609.19
2022-11-22T08:44:56.955Z,98608.97
2022-11-22T08:45:58.725Z,98609.63
2022-11-22T08:47:03.234Z,98616.94
2022-11-22T08:49:20.299Z,98614.22
2022-11-22T08:50:21.814Z,98617.31
2022-11-22T08:51:27.551Z,98612.38
2022-11-22T08:52:33.871Z,98620.81
2022-11-22T08:53:36.120Z,98627.19
2022-11-22T08:54:38.371Z,98624.34
2022-11-22T08:55:40.001Z,98626.53
2022-11-22T08:56:47.457Z,98620.44
2022-11-22T08:57:49.203Z,98609.22
2022-11-22T08:58:50.860Z,98610.28
2022-11-22T08:59:55.286Z,98613.06
2022-11-22T09:00:57.138Z,98612.97
2022-11-22T09:01:58.743Z,98610.97
2022-11-22T09:03:00.231Z,98617.63
2022-11-22T09:04:01.744Z,98622.22
2022-11-22T09:05:05.614Z,98621.25
2022-11-22T09:09:08.596Z,98627.03
2022-11-22T09:10:18.589Z,98616.50
2022-11-22T09:11:20.186Z,98614.31
2022-11-22T09:12:21.659Z,98611.78
2022-11-22T09:13:23.137Z,98615.28
2022-11-22T09:14:43.109Z,98618.59
2022-11-22T09:15:45.206Z,98617.56
2022-11-22T09:16:55.621Z,98617.03
2022-11-22T09:18:03.440Z,98620.84
2022-11-22T09:19:05.014Z,98614.84
2022-11-22T09:20:06.718Z,98608.81
2022-11-22T09:21:09.525Z,98622.66
2022-11-22T09:22:17.004Z,98616.50
2022-11-22T09:23:19.224Z,98629.72
2022-11-22T09:24:20.682Z,98618.00
2022-11-22T09:25:22.440Z,98618.22
2022-11-22T09:26:25.112Z,98621.75
2022-11-22T09:27:32.700Z,98632.53
2022-11-22T09:28:34.264Z,98628.81
2022-11-22T09:29:37.222Z,98619.66
2022-11-22T09:30:38.781Z,98625.00
2022-11-22T09:31:45.571Z,98614.06
2022-11-22T09:32:47.076Z,98622.63
2022-11-22T09:34:00.634Z,98620.38
2022-11-22T09:35:02.154Z,98622.47
2022-11-22T09:36:13.290Z,98622.09
2022-11-22T09:37:18.423Z,98616.53
2022-11-22T09:38:25.409Z,98622.84
2022-11-22T09:39:26.960Z,98614.94
2022-11-22T09:40:29.227Z,98612.88
2022-11-22T09:41:55.015Z,98614.72
2022-11-22T09:43:02.424Z,98608.31
2022-11-22T09:44:13.125Z,98610.84
2022-11-22T09:45:33.603Z,98611.88
2022-11-22T09:47:06.787Z,98611.25
2022-11-22T09:48:26.738Z,98604.66
2022-11-22T09:49:46.911Z,98602.88
2022-11-22T09:51:20.087Z,98606.28
2022-11-22T09:52:27.366Z,98609.16
2022-11-22T09:53:30.611Z,98602.34
2022-11-22T09:54:38.405Z,98600.78
2022-11-22T09:55:41.116Z,98594.31
2022-11-22T09:56:42.599Z,98603.41
2022-11-22T09:57:47.841Z,98598.56
2022-11-22T09:58:57.102Z,98604.97
2022-11-22T10:00:02.335Z,98600.94
2022-11-22T10:01:18.220Z,98589.78
2022-11-22T10:02:21.075Z,98595.38
2022-11-22T10:04:41.254Z,98590.44
2022-11-22T10:05:42.707Z,98590.44
2022-11-22T10:06:45.647Z,98593.53
2022-11-22T10:07:50.859Z,98602.22
2022-11-22T10:09:13.549Z,98604.25
2022-11-22T10:10:15.825Z,98598.09
2022-11-22T10:11:36.770Z,98580.22
2022-11-22T10:12:53.411Z,98590.75
2022-11-22T10:13:56.488Z,98588.47
2022-11-22T10:15:15.975Z,98593.94
2022-11-22T10:16:21.467Z,98600.13
2022-11-22T10:17:31.121Z,98596.44
2022-11-22T10:18:34.784Z,98589.91
2022-11-22T10:19:39.729Z,98590.22
2022-11-22T10:20:47.300Z,98582.78
2022-11-22T10:21:50.317Z,98589.78
2022-11-22T10:22:56.837Z,98587.53
2022-11-22T10:24:00.550Z,98583.91
2022-11-22T10:25:03.070Z,98589.41
2022-11-22T10:26:14.319Z,98589.16
2022-11-22T10:27:17.956Z,98573.50
2022-11-22T10:28:23.003Z,98585.56
2022-11-22T10:29:38.897Z,98588.91
2022-11-22T10:30:42.286Z,98584.16
2022-11-22T10:33:02.145Z,98579.91
2022-11-22T10:34:12.871Z,98579.28
2022-11-22T10:35:33.192Z,98575.34
2022-11-22T10:36:34.749Z,98588.41
2022-11-22T10:37:50.857Z,98586.63
2022-11-22T10:38:58.140Z,98583.31
2022-11-22T10:40:18.263Z,98590.56
2022-11-22T10:41:22.811Z,98594.16
2022-11-22T10:42:42.863Z,98587.13
2022-11-22T10:43:46.963Z,98577.00
2022-11-22T10:45:11.316Z,98588.34
2022-11-22T10:46:20.274Z,98588.16
2022-11-22T10:47:34.623Z,98587.53
2022-11-22T10:48:49.689Z,98579.72
2022-11-22T10:50:16.834Z,98577.22
2022-11-22T10:51:18.399Z,98573.00
2022-11-22T10:52:28.959Z,98568.44
2022-11-22T10:53:39.650Z,98582.19
2022-11-22T10:54:59.683Z,98569.97
2022-11-22T10:56:10.473Z,98576.59
2022-11-22T10:57:24.346Z,98577.19
2022-11-22T10:58:34.726Z,98573.06
2022-11-22T10:59:51.365Z,98577.69
2022-11-22T11:01:00.067Z,98573.91
2022-11-22T11:03:30.704Z,98570.50
2022-11-22T11:04:34.845Z,98580.72
2022-11-22T11:06:21.053Z,98582.75
2022-11-22T11:07:13.043Z,98551.22
2022-11-22T11:08:42.113Z,98580.38
2022-11-22T11:11:00.867Z,98584.00
2022-11-22T11:12:02.685Z,98587.16
2022-11-22T11:13:16.062Z,98576.13
2022-11-22T11:14:31.371Z,98592.03
2022-11-22T11:15:38.179Z,98577.66
2022-11-22T11:16:40.295Z,98553.47
2022-11-22T11:17:55.502Z,98551.72
2022-11-22T11:18:57.767Z,98572.53
2022-11-22T11:20:02.402Z,98581.69
2022-11-22T11:21:13.354Z,98580.78
2022-11-22T11:22:30.414Z,98572.09
2022-11-22T11:23:39.054Z,98577.41
2022-11-22T11:24:40.656Z,98576.66
2022-11-22T11:25:43.371Z,98567.09
2022-11-22T11:26:52.076Z,98562.75
2022-11-22T11:27:53.825Z,98560.78
2022-11-22T11:29:14.189Z,98566.34
2022-11-22T11:30:15.894Z,98566.88
2022-11-22T11:31:19.114Z,98556.28
2022-11-22T11:32:23.225Z,98560.91
2022-11-22T11:33:26.977Z,98569.66
2022-11-22T11:35:44.475Z,98562.53
2022-11-22T11:36:52.347Z,98565.22
2022-11-22T11:37:54.368Z,98564.31
2022-11-22T11:38:58.491Z,98567.31
2022-11-22T11:40:00.289Z,98560.91
2022-11-22T11:41:18.426Z,98566.28
2022-11-22T11:42:27.852Z,98564.63
2022-11-22T11:43:38.042Z,98565.66
2022-11-22T11:44:41.818Z,98565.84
2022-11-22T11:45:44.451Z,98557.69
2022-11-22T11:46:48.175Z,98565.03
2022-11-22T11:47:49.705Z,98573.41
2022-11-22T11:49:10.673Z,98565.25
2022-11-22T11:50:27.408Z,98568.56
2022-11-22T11:51:38.302Z,98562.34
2022-11-22T11:52:39.743Z,98567.28
2022-11-22T11:53:41.955Z,98571.75
2022-11-22T11:54:46.654Z,98559.88
2022-11-22T11:55:48.121Z,98561.22
2022-11-22T11:56:56.148Z,98553.06
2022-11-22T11:57:58.315Z,98567.09
2022-11-22T11:59:03.940Z,98565.78
2022-11-22T12:00:06.239Z,98568.84
2022-11-22T12:01:19.264Z,98569.97
2022-11-22T12:02:26.565Z,98563.56
2022-11-22T12:03:28.454Z,98564.19
2022-11-22T12:04:31.683Z,98564.19
2022-11-22T12:05:44.546Z,98560.91
2022-11-22T12:06:52.554Z,98580.19
2022-11-22T12:07:54.249Z,98570.13
2022-11-22T12:08:59.646Z,98570.56
2022-11-22T12:10:01.110Z,98574.47
2022-11-22T12:11:10.038Z,98573.84
2022-11-22T12:12:38.389Z,98563.13
2022-11-22T12:14:12.289Z,98568.25
2022-11-22T12:15:13.459Z,98565.09
2022-11-22T12:16:21.364Z,98562.41
2022-11-22T12:17:30.324Z,98577.91
2022-11-22T12:18:54.054Z,98573.72
2022-11-22T12:20:06.015Z,98568.16
2022-11-22T12:21:28.320Z,98569.78
2022-11-22T12:22:51.093Z,98582.53
2022-11-22T12:23:52.628Z,98574.16
2022-11-22T12:25:32.513Z,98568.78
2022-11-22T12:26:34.623Z,98579.94
2022-11-22T12:27:43.434Z,98586.53
2022-11-22T12:28:44.977Z,98577.22
2022-11-22T12:31:02.004Z,98578.34
2022-11-22T12:32:27.282Z,98565.25
2022-11-22T12:33:41.624Z,98569.72
2022-11-22T12:35:01.507Z,98568.91
2022-11-22T12:36:03.907Z,98565.38
2022-11-22T12:37:21.858Z,98564.16
2022-11-22T12:38:24.118Z,98553.69
2022-11-22T12:39:26.701Z,98564.00
2022-11-22T12:40:39.064Z,98559.44
2022-11-22T12:41:42.954Z,98555.13
2022-11-22T12:42:48.339Z,98556.78
2022-11-22T12:43:51.381Z,98551.31
2022-11-22T12:44:54.333Z,98548.50
2022-11-22T12:45:56.823Z,98545.94
2022-11-22T12:47:13.296Z,98545.94
2022-11-22T12:48:29.083Z,98546.16
2022-11-22T12:49:33.512Z,98542.84
2022-11-22T12:50:40.994Z,98545.41
2022-11-22T12:51:58.326Z,98545.94
2022-11-22T12:53:05.166Z,98541.91
2022-11-22T12:54:08.518Z,98546.91
2022-11-22T12:55:20.630Z,98541.81
2022-11-22T12:56:35.346Z,98535.72
2022-11-22T12:57:55.279Z,98538.41
2022-11-22T12:59:15.762Z,98543.28
2022-11-22T13:00:22.075Z,98544.53
2022-11-22T13:01:24.429Z,98538.75
2022-11-22T13:02:45.310Z,98539.78
2022-11-22T13:04:08.507Z,98539.41
2022-11-22T13:05:20.679Z,98544.56
2022-11-22T13:06:23.640Z,98553.00
2022-11-22T13:07:25.116Z,98543.31
2022-11-22T13:08:29.082Z,98548.97
2022-11-22T13:09:40.726Z,98549.88
2022-11-22T13:10:43.736Z,98547.00
2022-11-22T13:11:46.971Z,98556.59
2022-11-22T13:12:48.473Z,98558.25
2022-11-22T13:13:57.876Z,98548.44
2022-11-22T13:14:59.333Z,98549.78
2022-11-22T13:16:01.568Z,98560.00
2022-11-22T13:17:06.504Z,98550.47
2022-11-22T13:18:09.026Z,98556.88
2022-11-22T13:19:14.191Z,98547.75
2022-11-22T13:20:18.551Z,98547.97